Time;durP1;ratioP1;P1;durP2;ratioP2;P2;SDS_P1;SDS_P2;PMS_P1;PMS_P2;Temp;Humidity;BMP_temperature;BMP_pressure;BME280_temperature;BME280_humidity;BME280_pressure;Samples;Min_cycle;Max_cycle;Signal;HPM_P1;HPM_P2
2021/06/16 00:00:34;;;;;;;5.68;5.10;;;;;;;;;;5077134;28;20060;-66
2021/06/16 00:02:59;;;;;;;8.48;6.05;;;;;;;;;;5076453;28;20429;-66
2021/06/16 00:05:27;;;;;;;9.10;6.07;;;;;;;;;;5077155;28;20383;-66
2021/06/16 00:07:52;;;;;;;8.13;6.00;;;;;;;;;;5076908;28;20012;-66
2021/06/16 00:10:23;;;;;;;7.00;5.82;;;;;;;;;;5076964;28;20407;-66
2021/06/16 00:12:50;;;;;;;6.72;5.50;;;;;;;;;;5076755;28;20119;-67
2021/06/16 00:15:21;;;;;;;7.72;5.00;;;;;;;;;;5076688;28;20024;-67
2021/06/16 00:17:46;;;;;;;;;;;;;;;;;;5077209;28;20024;-67
2021/06/16 00:20:12;;;;;;;6.57;4.75;;;;;;;;;;5076687;28;19904;-67
2021/06/16 00:22:37;;;;;;;5.35;4.85;;;;;;;;;;5076814;28;20036;-67
2021/06/16 00:25:05;;;;;;;6.75;5.32;;;;;;;;;;5076222;28;20033;-67
2021/06/16 00:27:30;;;;;;;5.97;5.38;;;;;;;;;;5076758;28;20058;-68
2021/06/16 00:29:56;;;;;;;5.32;4.40;;;;;;;;;;5076342;28;20104;-68
2021/06/16 00:32:21;;;;;;;5.10;4.60;;;;;;;;;;5076147;28;20029;-67
2021/06/16 00:34:47;;;;;;;4.55;4.25;;;;;;;;;;5076031;28;20028;-67
2021/06/16 00:37:12;;;;;;;4.53;4.13;;;;;;;;;;5076066;28;20039;-67
2021/06/16 00:39:38;;;;;;;4.55;4.15;;;;;;;;;;5076367;28;20017;-67
2021/06/16 00:42:03;;;;;;;4.55;4.07;;;;;;;;;;5075176;28;20064;-68
2021/06/16 00:44:29;;;;;;;5.07;4.40;;;;;;;;;;5074977;28;20029;-69
2021/06/16 00:46:54;;;;;;;5.45;4.93;;;;;;;;;;5076098;28;20116;-68
2021/06/16 00:49:20;;;;;;;5.45;5.00;;;;;;;;;;5076063;28;20020;-66
2021/06/16 00:51:45;;;;;;;5.80;5.20;;;;;;;;;;5076421;28;20059;-67
2021/06/16 00:54:12;;;;;;;9.52;5.80;;;;;;;;;;5076257;28;20020;-67
2021/06/16 00:56:41;;;;;;;5.70;5.20;;;;;;;;;;5076308;28;20059;-67
2021/06/16 00:59:07;;;;;;;5.82;5.00;;;;;;;;;;5076402;28;20020;-66
2021/06/16 01:01:40;;;;;;;7.70;4.70;;;;;;;;;;5075836;28;20035;-66
2021/06/16 01:04:08;;;;;;;4.90;4.25;;;;;;;;;;5075546;28;20132;-66
2021/06/16 01:06:34;;;;;;;5.93;4.68;;;;;;;;;;5075703;28;20032;-67
2021/06/16 01:09:02;;;;;;;6.57;5.05;;;;;;;;;;5075633;28;20386;-67
2021/06/16 01:11:28;;;;;;;6.03;5.43;;;;;;;;;;5075871;28;20017;-66
2021/06/16 01:13:55;;;;;;;8.35;5.20;;;;;;;;;;5075631;28;20367;-66
2021/06/16 01:16:26;;;;;;;5.65;5.10;;;;;;;;;;5075906;28;20025;-66
2021/06/16 01:18:52;;;;;;;5.82;5.22;;;;;;;;;;5075705;28;20032;-66
2021/06/16 01:21:18;;;;;;;6.10;5.00;;;;;;;;;;5075818;28;20028;-66
2021/06/16 01:23:56;;;;;;;8.52;5.30;;;;;;;;;;5075239;28;20032;-66
2021/06/16 01:26:31;;;;;;;8.73;4.90;;;;;;;;;;5075233;28;20040;-67
2021/06/16 01:29:14;;;;;;;5.13;4.70;;;;;;;;;;5075451;28;20476;-66
2021/06/16 01:31:40;;;;;;;4.97;4.53;;;;;;;;;;5075749;28;20060;-66
2021/06/16 01:34:07;;;;;;;4.97;4.07;;;;;;;;;;5075519;28;20449;-66
2021/06/16 01:36:33;;;;;;;4.80;4.40;;;;;;;;;;5075487;28;20047;-66
2021/06/16 01:38:59;;;;;;;4.15;3.85;;;;;;;;;;5075162;28;20044;-67
2021/06/16 01:41:24;;;;;;;4.35;4.05;;;;;;;;;;5075241;28;20117;-66
2021/06/16 01:43:52;;;;;;;4.43;4.03;;;;;;;;;;5075191;28;20413;-66
2021/06/16 01:46:18;;;;;;;4.55;4.15;;;;;;;;;;5074930;28;20027;-67
2021/06/16 01:48:44;;;;;;;5.90;4.60;;;;;;;;;;5075091;28;20020;-67
2021/06/16 01:51:10;;;;;;;4.65;4.00;;;;;;;;;;5075263;28;20031;-66
2021/06/16 01:53:36;;;;;;;5.18;4.22;;;;;;;;;;5074832;28;20017;-65
2021/06/16 01:56:02;;;;;;;4.30;3.90;;;;;;;;;;5074902;28;20348;-65
2021/06/16 01:58:27;;;;;;;4.68;4.28;;;;;;;;;;5074873;28;20070;-65
2021/06/16 02:00:53;;;;;;;4.60;4.20;;;;;;;;;;5074863;28;20032;-64
2021/06/16 02:03:19;;;;;;;4.80;4.30;;;;;;;;;;5074559;28;20040;-64
2021/06/16 02:05:45;;;;;;;4.15;3.70;;;;;;;;;;5073424;28;20036;-64
2021/06/16 02:08:12;;;;;;;4.68;3.90;;;;;;;;;;5074441;28;20085;-64
2021/06/16 02:10:39;;;;;;;4.75;4.10;;;;;;;;;;5074907;28;20074;-65
2021/06/16 02:13:07;;;;;;;4.05;3.75;;;;;;;;;;5074717;28;20032;-65
2021/06/16 02:15:47;;;;;;;5.10;4.43;;;;;;;;;;5074379;28;20024;-65
2021/06/16 02:18:13;;;;;;;5.97;4.25;;;;;;;;;;5074514;28;20029;-65
2021/06/16 02:20:39;;;;;;;4.45;4.00;;;;;;;;;;5074517;28;20025;-67
2021/06/16 02:23:05;;;;;;;4.93;4.43;;;;;;;;;;5073790;28;20028;-67
2021/06/16 02:25:32;;;;;;;7.18;4.35;;;;;;;;;;5074294;28;20437;-66
2021/06/16 02:27:57;;;;;;;4.55;4.25;;;;;;;;;;5074454;28;20025;-66
2021/06/16 02:30:23;;;;;;;4.53;4.10;;;;;;;;;;5074044;28;20375;-66
2021/06/16 02:32:48;;;;;;;4.40;4.10;;;;;;;;;;5074059;28;20123;-67
2021/06/16 02:35:14;;;;;;;4.28;3.80;;;;;;;;;;5074256;28;20028;-68
2021/06/16 02:37:44;;;;;;;4.30;3.90;;;;;;;;;;5073914;28;20047;-67
2021/06/16 02:40:12;;;;;;;4.15;3.85;;;;;;;;;;5073990;28;20176;-65
2021/06/16 02:42:46;;;;;;;5.32;4.03;;;;;;;;;;5073990;28;20032;-66
2021/06/16 02:45:12;;;;;;;4.55;4.15;;;;;;;;;;5072830;28;20032;-65
2021/06/16 02:47:39;;;;;;;4.88;4.38;;;;;;;;;;5073957;28;20350;-66
2021/06/16 02:50:05;;;;;;;4.05;3.67;;;;;;;;;;5074130;28;20423;-65
2021/06/16 02:52:31;;;;;;;4.53;4.13;;;;;;;;;;5074011;28;20040;-65
2021/06/16 02:55:02;;;;;;;4.45;3.35;;;;;;;;;;5073791;28;20028;-65
2021/06/16 02:57:30;;;;;;;3.47;3.25;;;;;;;;;;5073767;28;20036;-65
2021/06/16 02:59:56;;;;;;;3.95;3.55;;;;;;;;;;5073484;28;20524;-61
2021/06/16 03:02:23;;;;;;;4.72;4.20;;;;;;;;;;5073447;28;20036;-61
2021/06/16 03:04:50;;;;;;;5.38;4.70;;;;;;;;;;5073433;28;20044;-61
2021/06/16 03:07:16;;;;;;;4.43;4.03;;;;;;;;;;5072768;28;20021;-61
2021/06/16 03:09:43;;;;;;;5.68;4.32;;;;;;;;;;5073219;28;20031;-61
2021/06/16 03:12:09;;;;;;;3.60;3.40;;;;;;;;;;5073290;28;20029;-61
2021/06/16 03:14:35;;;;;;;5.18;4.30;;;;;;;;;;5073426;28;20032;-61
2021/06/16 03:17:01;;;;;;;4.75;4.35;;;;;;;;;;5073406;28;20478;-61
2021/06/16 03:19:26;;;;;;;5.90;4.50;;;;;;;;;;5073088;28;20044;-61
2021/06/16 03:21:53;;;;;;;5.03;4.60;;;;;;;;;;5073365;28;20029;-61
2021/06/16 03:24:21;;;;;;;5.55;4.90;;;;;;;;;;5073574;28;20028;-61
2021/06/16 03:26:47;;;;;;;5.22;4.82;;;;;;;;;;5073805;28;20044;-61
2021/06/16 03:29:13;;;;;;;5.68;5.18;;;;;;;;;;5073676;28;20020;-62
2021/06/16 03:31:41;;;;;;;5.03;4.63;;;;;;;;;;5072461;28;20029;-62
2021/06/16 03:34:07;;;;;;;5.60;4.45;;;;;;;;;;5073268;28;20024;-62
2021/06/16 03:36:34;;;;;;;4.80;4.13;;;;;;;;;;5073502;28;20029;-62
2021/06/16 03:39:00;;;;;;;4.72;4.22;;;;;;;;;;5073277;28;20017;-62
2021/06/16 03:41:26;;;;;;;4.97;4.30;;;;;;;;;;5073537;28;20051;-62
2021/06/16 03:43:51;;;;;;;4.85;4.38;;;;;;;;;;5073436;28;20459;-61
2021/06/16 03:46:18;;;;;;;5.03;4.63;;;;;;;;;;5073197;28;20033;-67
2021/06/16 03:48:44;;;;;;;5.50;5.00;;;;;;;;;;5072967;28;20382;-68
2021/06/16 03:51:10;;;;;;;6.20;4.57;;;;;;;;;;5073233;28;20119;-69
2021/06/16 03:53:36;;;;;;;5.35;4.05;;;;;;;;;;5073486;28;20474;-69
2021/06/16 03:56:02;;;;;;;4.38;4.07;;;;;;;;;;5073010;28;20028;-67
2021/06/16 03:58:28;;;;;;;6.72;4.28;;;;;;;;;;5073405;28;20374;-68
2021/06/16 04:00:54;;;;;;;5.57;4.45;;;;;;;;;;5071685;28;20032;-67
2021/06/16 04:03:19;;;;;;;4.90;4.40;;;;;;;;;;5072249;28;20045;-66
2021/06/16 04:05:45;;;;;;;4.35;4.00;;;;;;;;;;5073318;28;20028;-67
2021/06/16 04:08:11;;;;;;;4.85;3.90;;;;;;;;;;5073295;28;20443;-66
2021/06/16 04:10:37;;;;;;;4.55;4.15;;;;;;;;;;5072991;28;20470;-67
2021/06/16 04:13:03;;;;;;;5.10;4.47;;;;;;;;;;5072756;28;20024;-68
2021/06/16 04:15:29;;;;;;;5.93;4.65;;;;;;;;;;5073068;28;20450;-67
2021/06/16 04:17:59;;;;;;;5.63;4.38;;;;;;;;;;5072936;28;20024;-67
2021/06/16 04:20:25;;;;;;;6.00;3.92;;;;;;;;;;5076750;28;20055;-67
2021/06/16 04:22:50;;;;;;;4.47;4.03;;;;;;;;;;5075298;28;20048;-68
2021/06/16 04:25:15;;;;;;;4.65;4.15;;;;;;;;;;5076282;28;20033;-69
2021/06/16 04:27:41;;;;;;;5.65;4.28;;;;;;;;;;5076408;28;20205;-68
2021/06/16 04:30:09;;;;;;;4.72;4.25;;;;;;;;;;5076306;28;20048;-68
2021/06/16 04:32:35;;;;;;;4.72;4.13;;;;;;;;;;5076461;28;20032;-62
2021/06/16 04:35:01;;;;;;;5.00;4.50;;;;;;;;;;5075979;28;20028;-62
2021/06/16 04:37:26;;;;;;;4.30;3.95;;;;;;;;;;5076272;28;20077;-62
2021/06/16 04:39:52;;;;;;;4.80;3.90;;;;;;;;;;5076285;28;20036;-62
2021/06/16 04:42:18;;;;;;;4.45;4.05;;;;;;;;;;5076265;28;20023;-67
2021/06/16 04:44:45;;;;;;;5.00;4.35;;;;;;;;;;5075580;28;20039;-66
2021/06/16 04:47:10;;;;;;;4.75;4.25;;;;;;;;;;5075854;28;20062;-66
2021/06/16 04:49:37;;;;;;;5.20;4.03;;;;;;;;;;5075378;28;20029;-66
2021/06/16 04:52:05;;;;;;;5.25;4.28;;;;;;;;;;5076241;28;20017;-67
2021/06/16 04:54:31;;;;;;;4.47;4.07;;;;;;;;;;5076081;28;20052;-67
2021/06/16 04:57:04;;;;;;;4.60;4.18;;;;;;;;;;5076103;28;20024;-66
2021/06/16 04:59:30;;;;;;;4.43;3.45;;;;;;;;;;5076319;28;20086;-66
2021/06/16 05:01:55;;;;;;;4.07;3.78;;;;;;;;;;5076220;28;20024;-66
2021/06/16 05:04:23;;;;;;;4.40;3.97;;;;;;;;;;5076158;28;20051;-67
2021/06/16 05:06:48;;;;;;;4.75;4.07;;;;;;;;;;5075220;28;20046;-67
2021/06/16 05:09:14;;;;;;;4.90;4.15;;;;;;;;;;5075547;28;20025;-67
2021/06/16 05:11:39;;;;;;;5.28;4.03;;;;;;;;;;5076102;28;20016;-68
2021/06/16 05:14:05;;;;;;;4.53;4.13;;;;;;;;;;5076048;28;20021;-71
2021/06/16 05:16:30;;;;;;;5.00;4.10;;;;;;;;;;5075607;28;20451;-66
2021/06/16 05:18:57;;;;;;;7.00;4.63;;;;;;;;;;5075492;28;20036;-69
2021/06/16 05:21:23;;;;;;;4.68;4.18;;;;;;;;;;5075484;28;20027;-69
2021/06/16 05:23:49;;;;;;;7.75;4.07;;;;;;;;;;5075412;28;20032;-68
2021/06/16 05:26:14;;;;;;;5.80;4.05;;;;;;;;;;5075248;28;20391;-68
2021/06/16 05:28:40;;;;;;;7.50;4.03;;;;;;;;;;5075450;28;20110;-68
2021/06/16 05:31:05;;;;;;;6.03;3.92;;;;;;;;;;5075040;28;20017;-67
2021/06/16 05:33:31;;;;;;;4.88;4.05;;;;;;;;;;5073999;28;20035;-67
2021/06/16 05:35:56;;;;;;;6.68;4.10;;;;;;;;;;5075204;28;20451;-68
2021/06/16 05:38:23;;;;;;;4.43;4.07;;;;;;;;;;5073922;28;20450;-68
2021/06/16 05:40:48;;;;;;;4.20;3.85;;;;;;;;;;5075244;28;20455;-68
2021/06/16 05:43:14;;;;;;;4.53;4.00;;;;;;;;;;5075102;28;20067;-68
2021/06/16 05:45:42;;;;;;;5.85;4.35;;;;;;;;;;5074731;28;20524;-67
2021/06/16 05:48:08;;;;;;;5.50;4.30;;;;;;;;;;5075066;28;20021;-68
2021/06/16 05:50:33;;;;;;;4.45;4.03;;;;;;;;;;5074921;28;20023;-68
2021/06/16 05:52:59;;;;;;;4.88;4.38;;;;;;;;;;5074595;28;20040;-67
2021/06/16 05:55:25;;;;;;;4.20;3.28;;;;;;;;;;5074831;28;20017;-67
2021/06/16 05:57:52;;;;;;;6.65;3.92;;;;;;;;;;5075117;28;20463;-68
2021/06/16 06:00:17;;;;;;;6.15;3.63;;;;;;;;;;5074405;28;20034;-67
2021/06/16 06:02:43;;;;;;;11.10;4.28;;;;;;;;;;5073974;28;20048;-67
2021/06/16 06:05:11;;;;;;;7.88;4.13;;;;;;;;;;5074560;28;20032;-66
2021/06/16 06:07:37;;;;;;;5.65;4.47;;;;;;;;;;5073519;28;20107;-66
2021/06/16 06:10:03;;;;;;;6.47;4.32;;;;;;;;;;5074507;28;20444;-66
2021/06/16 06:12:28;;;;;;;6.65;4.35;;;;;;;;;;5074500;28;20158;-66
2021/06/16 06:14:54;;;;;;;4.78;4.35;;;;;;;;;;5073235;28;20025;-66
2021/06/16 06:17:19;;;;;;;4.80;4.40;;;;;;;;;;5072988;28;20068;-66
2021/06/16 06:19:46;;;;;;;6.15;4.03;;;;;;;;;;5073240;28;20017;-65
2021/06/16 06:22:11;;;;;;;5.35;4.55;;;;;;;;;;5074261;28;20029;-65
2021/06/16 06:24:37;;;;;;;8.70;4.13;;;;;;;;;;5074240;28;20409;-64
2021/06/16 06:27:03;;;;;;;5.55;4.20;;;;;;;;;;5074173;28;20383;-61
2021/06/16 06:29:28;;;;;;;6.57;4.45;;;;;;;;;;5073959;28;20021;-61
2021/06/16 06:31:54;;;;;;;4.75;3.92;;;;;;;;;;5072779;28;20070;-61
2021/06/16 06:34:19;;;;;;;7.38;4.55;;;;;;;;;;5073885;28;20056;-61
2021/06/16 06:36:45;;;;;;;5.90;4.63;;;;;;;;;;5074090;28;20028;-61
2021/06/16 06:39:11;;;;;;;6.60;4.80;;;;;;;;;;5073904;28;20023;-60
2021/06/16 06:41:36;;;;;;;4.10;3.63;;;;;;;;;;5073362;28;20024;-59
2021/06/16 06:44:02;;;;;;;5.10;3.25;;;;;;;;;;5073263;28;20089;-60
2021/06/16 06:46:28;;;;;;;4.07;3.63;;;;;;;;;;5073613;28;20055;-60
2021/06/16 06:48:55;;;;;;;5.00;4.13;;;;;;;;;;5073705;28;20363;-60
2021/06/16 06:51:21;;;;;;;4.43;3.50;;;;;;;;;;5073871;28;20371;-60
2021/06/16 06:53:47;;;;;;;6.18;3.22;;;;;;;;;;5073957;28;20016;-60
2021/06/16 06:56:12;;;;;;;2.60;2.40;;;;;;;;;;5073622;28;20570;-60
2021/06/16 06:58:38;;;;;;;2.67;2.47;;;;;;;;;;5073654;28;20020;-60
2021/06/16 07:01:04;;;;;;;2.70;2.50;;;;;;;;;;5073814;28;20028;-60
2021/06/16 07:03:30;;;;;;;3.47;2.47;;;;;;;;;;5073412;28;20506;-60
2021/06/16 07:05:56;;;;;;;3.42;2.88;;;;;;;;;;5073554;28;20040;-60
2021/06/16 07:08:21;;;;;;;3.30;3.00;;;;;;;;;;5073475;28;20020;-60
2021/06/16 07:10:47;;;;;;;2.95;2.67;;;;;;;;;;5073250;28;20025;-60
2021/06/16 07:13:13;;;;;;;3.40;3.10;;;;;;;;;;5073362;28;20340;-60
2021/06/16 07:15:38;;;;;;;3.70;3.40;;;;;;;;;;5072191;28;20036;-60
2021/06/16 07:18:04;;;;;;;2.97;2.65;;;;;;;;;;5072422;28;20023;-60
2021/06/16 07:20:29;;;;;;;3.75;3.08;;;;;;;;;;5073606;28;20043;-60
2021/06/16 07:22:55;;;;;;;3.72;2.92;;;;;;;;;;5073332;28;20433;-60
2021/06/16 07:25:21;;;;;;;3.42;3.00;;;;;;;;;;5073291;28;20067;-63
2021/06/16 07:27:46;;;;;;;3.50;3.20;;;;;;;;;;5073237;28;20021;-59
2021/06/16 07:30:13;;;;;;;4.72;3.22;;;;;;;;;;5073033;28;20032;-59
2021/06/16 07:32:38;;;;;;;4.68;3.38;;;;;;;;;;5073467;28;20464;-60
2021/06/16 07:35:06;;;;;;;3.72;3.03;;;;;;;;;;5073363;28;20025;-60
2021/06/16 07:37:31;;;;;;;3.85;3.30;;;;;;;;;;5073270;28;20513;-60
2021/06/16 07:39:57;;;;;;;3.65;3.40;;;;;;;;;;5073130;28;20119;-60
2021/06/16 07:42:23;;;;;;;5.00;3.38;;;;;;;;;;5073343;28;20016;-60
2021/06/16 07:44:49;;;;;;;4.47;3.55;;;;;;;;;;5072988;28;20039;-60
2021/06/16 07:47:14;;;;;;;3.92;3.60;;;;;;;;;;5072987;28;20025;-60
2021/06/16 07:49:40;;;;;;;3.80;3.50;;;;;;;;;;5073038;28;20077;-60
2021/06/16 07:52:06;;;;;;;3.80;3.50;;;;;;;;;;5073024;28;20046;-60
2021/06/16 07:54:32;;;;;;;4.18;3.65;;;;;;;;;;5075767;28;20455;-60
2021/06/16 07:56:57;;;;;;;3.40;3.10;;;;;;;;;;5076983;28;20087;-60
2021/06/16 07:59:23;;;;;;;6.30;3.70;;;;;;;;;;5075894;28;20020;-61
2021/06/16 08:01:48;;;;;;;5.05;4.07;;;;;;;;;;5076900;28;20491;-61
2021/06/16 08:04:14;;;;;;;4.65;3.42;;;;;;;;;;5076708;28;20486;-60
2021/06/16 08:06:40;;;;;;;3.60;3.30;;;;;;;;;;5076596;28;20049;-60
2021/06/16 08:09:06;;;;;;;5.28;4.40;;;;;;;;;;5076658;28;20016;-60
2021/06/16 08:11:31;;;;;;;4.85;4.35;;;;;;;;;;5076738;28;20474;-61
2021/06/16 08:13:57;;;;;;;5.35;3.88;;;;;;;;;;5076610;28;20087;-61
2021/06/16 08:16:22;;;;;;;6.65;3.75;;;;;;;;;;5076492;28;20032;-60
2021/06/16 08:18:50;;;;;;;4.28;3.67;;;;;;;;;;5076377;28;20052;-61
2021/06/16 08:21:16;;;;;;;4.22;3.85;;;;;;;;;;5076397;28;20029;-61
2021/06/16 08:23:43;;;;;;;6.32;4.45;;;;;;;;;;5076546;28;20100;-60
2021/06/16 08:26:09;;;;;;;6.18;4.20;;;;;;;;;;5076357;28;20032;-61
2021/06/16 08:28:34;;;;;;;3.80;3.50;;;;;;;;;;5076412;28;20073;-60
2021/06/16 08:31:00;;;;;;;5.22;3.58;;;;;;;;;;5076189;28;20032;-60
2021/06/16 08:33:25;;;;;;;3.55;3.25;;;;;;;;;;5076200;28;20024;-60
2021/06/16 08:35:51;;;;;;;4.53;4.13;;;;;;;;;;5075469;28;20029;-60
2021/06/16 08:38:17;;;;;;;3.85;3.38;;;;;;;;;;5076139;28;20028;-60
2021/06/16 08:40:42;;;;;;;5.97;4.60;;;;;;;;;;5076281;28;20051;-60
2021/06/16 08:43:08;;;;;;;5.55;4.20;;;;;;;;;;5076552;28;20497;-60
2021/06/16 08:45:38;;;;;;;5.18;4.70;;;;;;;;;;5075977;28;20505;-60
2021/06/16 08:48:04;;;;;;;6.85;4.60;;;;;;;;;;5075832;28;20165;-61
2021/06/16 08:50:30;;;;;;;5.82;4.20;;;;;;;;;;5075361;28;20456;-61
2021/06/16 08:52:55;;;;;;;4.80;4.30;;;;;;;;;;5076283;28;20020;-60
2021/06/16 08:55:21;;;;;;;6.53;4.80;;;;;;;;;;5075786;28;20039;-61
2021/06/16 08:57:47;;;;;;;6.25;4.05;;;;;;;;;;5075822;28;20398;-60
2021/06/16 09:00:13;;;;;;;4.95;4.43;;;;;;;;;;5076059;28;20122;-60
2021/06/16 09:02:39;;;;;;;4.53;4.13;;;;;;;;;;5075588;28;20059;-60
2021/06/16 09:05:04;;;;;;;4.75;4.13;;;;;;;;;;5073518;28;20453;-61
2021/06/16 09:07:31;;;;;;;4.68;3.80;;;;;;;;;;5075820;28;20043;-61
2021/06/16 09:10:14;;;;;;;4.75;4.32;;;;;;;;;;5074991;28;20112;-60
2021/06/16 09:12:44;;;;;;;5.03;3.90;;;;;;;;;;5074967;28;20033;-60
2021/06/16 09:15:12;;;;;;;6.00;4.05;;;;;;;;;;5075316;28;20024;-61
2021/06/16 09:17:37;;;;;;;6.15;4.13;;;;;;;;;;5075192;28;20036;-61
2021/06/16 09:20:03;;;;;;;6.43;4.43;;;;;;;;;;5074965;28;20078;-61
2021/06/16 09:22:30;;;;;;;5.40;4.53;;;;;;;;;;5074717;28;20391;-61
2021/06/16 09:24:56;;;;;;;5.97;4.03;;;;;;;;;;5074460;28;20475;-60
2021/06/16 09:27:40;;;;;;;6.53;4.32;;;;;;;;;;5074558;28;20025;-60
2021/06/16 09:30:26;;;;;;;5.28;4.45;;;;;;;;;;5075053;28;20039;-60
2021/06/16 09:32:53;;;;;;;5.63;4.90;;;;;;;;;;5075089;28;20027;-60
2021/06/16 09:35:19;;;;;;;6.20;4.60;;;;;;;;;;5073697;28;20023;-60
2021/06/16 09:37:44;;;;;;;5.82;4.53;;;;;;;;;;5074634;28;20029;-60
2021/06/16 09:40:10;;;;;;;6.88;4.88;;;;;;;;;;5074927;28;20107;-60
2021/06/16 09:42:35;;;;;;;5.70;4.30;;;;;;;;;;5074712;28;20059;-60
2021/06/16 09:45:03;;;;;;;5.07;4.60;;;;;;;;;;5074639;28;20020;-60
2021/06/16 09:47:29;;;;;;;4.30;3.90;;;;;;;;;;5074567;28;20078;-60
2021/06/16 09:49:56;;;;;;;5.28;4.78;;;;;;;;;;5074640;28;20107;-60
2021/06/16 09:52:29;;;;;;;7.72;5.20;;;;;;;;;;5074417;28;20024;-60
2021/06/16 09:54:54;;;;;;;5.47;4.43;;;;;;;;;;5074362;28;20060;-60
2021/06/16 09:57:19;;;;;;;6.13;5.03;;;;;;;;;;5074563;28;20025;-61
2021/06/16 09:59:46;;;;;;;7.05;5.13;;;;;;;;;;5074588;28;20037;-61
2021/06/16 10:02:18;;;;;;;5.22;4.10;;;;;;;;;;5074324;28;20051;-60
2021/06/16 10:04:50;;;;;;;5.97;4.20;;;;;;;;;;5074114;28;20041;-61
2021/06/16 10:07:20;;;;;;;4.35;3.97;;;;;;;;;;5074264;28;20028;-60
2021/06/16 10:09:46;;;;;;;5.20;4.68;;;;;;;;;;5074048;28;20028;-61
2021/06/16 10:12:12;;;;;;;5.00;4.15;;;;;;;;;;5074164;28;20445;-60
2021/06/16 10:14:37;;;;;;;5.70;5.10;;;;;;;;;;5074059;28;20063;-60
2021/06/16 10:17:03;;;;;;;5.65;4.53;;;;;;;;;;5073928;28;20099;-60
2021/06/16 10:19:29;;;;;;;5.93;5.05;;;;;;;;;;5074093;28;20035;-60
2021/06/16 10:21:55;;;;;;;6.25;4.40;;;;;;;;;;5074073;28;20017;-60
2021/06/16 10:24:20;;;;;;;4.72;4.28;;;;;;;;;;5073975;28;20433;-60
2021/06/16 10:26:47;;;;;;;5.35;4.78;;;;;;;;;;5073750;28;20012;-61
2021/06/16 10:29:13;;;;;;;5.15;4.65;;;;;;;;;;5073797;28;20090;-60
2021/06/16 10:31:41;;;;;;;5.55;4.97;;;;;;;;;;5072174;28;20024;-60
2021/06/16 10:34:07;;;;;;;4.93;4.50;;;;;;;;;;5074293;28;20029;-61
2021/06/16 10:36:33;;;;;;;10.88;8.23;;;;;;;;;;5073600;28;20021;-61
2021/06/16 10:38:59;;;;;;;4.97;3.92;;;;;;;;;;5073644;28;20578;-60
2021/06/16 10:41:37;;;;;;;7.03;3.72;;;;;;;;;;5073699;28;20032;-61
2021/06/16 10:44:12;;;;;;;5.75;3.47;;;;;;;;;;5073590;28;20077;-60
2021/06/16 10:46:52;;;;;;;5.88;3.70;;;;;;;;;;5073354;28;20039;-60
2021/06/16 10:49:46;;;;;;;9.30;8.45;;;;;;;;;;5073381;28;20108;-60
2021/06/16 10:52:14;;;;;;;7.57;5.82;;;;;;;;;;5069721;28;20090;-61
2021/06/16 10:54:51;;;;;;;7.40;5.38;;;;;;;;;;5073311;28;20043;-61
2021/06/16 10:57:17;;;;;;;7.07;6.28;;;;;;;;;;5073546;28;20031;-61
2021/06/16 10:59:42;;;;;;;5.07;4.57;;;;;;;;;;5073335;28;20005;-61
2021/06/16 11:02:09;;;;;;;5.82;4.20;;;;;;;;;;5073395;28;20463;-60
2021/06/16 11:04:36;;;;;;;6.50;4.07;;;;;;;;;;5071860;28;20398;-60
2021/06/16 11:07:01;;;;;;;5.32;4.40;;;;;;;;;;5073242;28;20585;-60
2021/06/16 11:09:47;;;;;;;4.38;3.97;;;;;;;;;;5071986;28;20054;-60
2021/06/16 11:12:13;;;;;;;3.97;3.67;;;;;;;;;;5065985;28;20122;-60
2021/06/16 11:14:46;;;;;;;6.20;5.60;;;;;;;;;;5073043;28;20055;-61
2021/06/16 11:17:27;;;;;;;5.53;4.15;;;;;;;;;;5071918;28;20035;-60
2021/06/16 11:19:56;;;;;;;10.35;8.07;;;;;;;;;;5073157;28;20028;-60
2021/06/16 11:22:24;;;;;;;7.28;5.68;;;;;;;;;;5073037;28;20428;-60
2021/06/16 11:25:05;;;;;;;6.32;5.72;;;;;;;;;;5073018;28;20024;-60
2021/06/16 11:27:49;;;;;;;9.50;5.30;;;;;;;;;;5072986;28;20497;-60
2021/06/16 11:30:26;;;;;;;11.73;6.22;;;;;;;;;;5073056;28;20467;-60
2021/06/16 11:33:10;;;;;;;5.53;4.03;;;;;;;;;;5073098;28;20056;-60
2021/06/16 11:35:36;;;;;;;4.88;4.40;;;;;;;;;;5072971;28;20027;-60
2021/06/16 11:38:02;;;;;;;5.22;4.18;;;;;;;;;;5073069;28;20024;-61
2021/06/16 11:40:28;;;;;;;5.10;4.30;;;;;;;;;;5072972;28;20037;-60
2021/06/16 11:42:53;;;;;;;6.32;4.45;;;;;;;;;;5072917;28;20066;-60
2021/06/16 11:45:19;;;;;;;4.80;4.40;;;;;;;;;;5072703;28;20109;-60
2021/06/16 11:47:52;;;;;;;6.43;5.38;;;;;;;;;;5072848;28;20013;-61
2021/06/16 11:50:24;;;;;;;9.20;5.95;;;;;;;;;;5072855;28;20086;-61
2021/06/16 11:53:00;;;;;;;6.85;4.57;;;;;;;;;;5072952;28;20529;-60
2021/06/16 11:55:42;;;;;;;11.82;8.05;;;;;;;;;;5072901;28;20082;-60
2021/06/16 11:58:23;;;;;;;26.85;16.08;;;;;;;;;;5072899;28;20028;-60
2021/06/16 12:00:49;;;;;;;26.15;14.10;;;;;;;;;;5072811;28;20029;-60
2021/06/16 12:03:15;;;;;;;15.27;10.63;;;;;;;;;;5070942;28;20036;-60
2021/06/16 12:05:41;;;;;;;9.95;6.68;;;;;;;;;;5072681;28;20032;-61
2021/06/16 12:08:06;;;;;;;13.57;8.43;;;;;;;;;;5072815;28;20028;-60
2021/06/16 12:10:32;;;;;;;19.10;9.35;;;;;;;;;;5072701;28;20028;-60
2021/06/16 12:12:59;;;;;;;16.52;10.10;;;;;;;;;;5072552;28;20433;-60
2021/06/16 12:15:26;;;;;;;10.20;5.93;;;;;;;;;;5072558;28;20120;-60
2021/06/16 12:17:59;;;;;;;17.02;9.25;;;;;;;;;;5072612;28;20035;-60
2021/06/16 12:20:26;;;;;;;44.58;20.48;;;;;;;;;;5072249;28;20375;-61
2021/06/16 12:22:51;;;;;;;17.33;9.55;;;;;;;;;;5072612;28;20016;-60
2021/06/16 12:25:24;;;;;;;5.35;4.32;;;;;;;;;;5072591;28;20094;-60
2021/06/16 12:27:49;;;;;;;4.45;3.72;;;;;;;;;;5071334;28;20024;-60
2021/06/16 12:30:18;;;;;;;7.40;5.30;;;;;;;;;;5072553;28;20025;-60
2021/06/16 12:32:45;;;;;;;8.63;5.82;;;;;;;;;;5072582;28;20063;-60
2021/06/16 12:35:40;;;;;;;9.07;5.97;;;;;;;;;;5071183;28;20030;-61
2021/06/16 12:37:57;;;;;;;6.10;4.30;;;;;;;;;;5072235;28;20048;-60
2021/06/16 12:40:34;;;;;;;5.22;3.92;;;;;;;;;;5073112;28;20020;-60
2021/06/16 12:43:00;;;;;;;4.80;3.80;;;;;;;;;;5075757;28;20077;-61
2021/06/16 12:45:28;;;;;;;4.35;4.00;;;;;;;;;;5075829;28;20460;-61
2021/06/16 12:47:54;;;;;;;4.43;4.07;;;;;;;;;;5075704;28;20032;-60
2021/06/16 12:50:26;;;;;;;4.43;4.03;;;;;;;;;;5075785;28;20016;-60
2021/06/16 12:52:52;;;;;;;4.38;4.03;;;;;;;;;;5075722;28;20503;-60
2021/06/16 12:55:17;;;;;;;4.38;3.97;;;;;;;;;;5075653;28;20024;-61
2021/06/16 12:57:46;;;;;;;4.00;3.53;;;;;;;;;;5075677;28;20429;-60
2021/06/16 13:00:15;;;;;;;5.18;4.05;;;;;;;;;;5075712;28;20028;-60
2021/06/16 13:02:41;;;;;;;4.18;3.80;;;;;;;;;;5075268;28;20035;-61
2021/06/16 13:05:08;;;;;;;6.50;4.50;;;;;;;;;;5075431;28;20033;-60
2021/06/16 13:07:46;;;;;;;4.60;4.20;;;;;;;;;;5075510;28;20025;-61
2021/06/16 13:10:13;;;;;;;4.47;4.07;;;;;;;;;;5075389;28;20028;-61
2021/06/16 13:12:50;;;;;;;5.50;4.22;;;;;;;;;;5075501;28;20103;-60
2021/06/16 13:15:16;;;;;;;4.20;3.90;;;;;;;;;;5075269;28;20082;-60
2021/06/16 13:17:45;;;;;;;4.30;4.00;;;;;;;;;;5075391;28;20009;-60
2021/06/16 13:20:12;;;;;;;5.90;4.07;;;;;;;;;;5075160;28;20112;-60
2021/06/16 13:22:39;;;;;;;6.38;4.32;;;;;;;;;;5075231;28;20031;-61
2021/06/16 13:25:05;;;;;;;4.55;4.13;;;;;;;;;;5075011;28;20115;-61
2021/06/16 13:27:44;;;;;;;4.40;3.97;;;;;;;;;;5075287;28;20100;-61
2021/06/16 13:30:12;;;;;;;4.93;3.80;;;;;;;;;;5075214;28;20028;-61
2021/06/16 13:32:41;;;;;;;4.03;3.67;;;;;;;;;;5075114;28;20519;-61
2021/06/16 13:35:07;;;;;;;100.53;11.98;;;;;;;;;;5073857;28;20489;-60
2021/06/16 13:37:34;;;;;;;7.20;4.20;;;;;;;;;;5074836;28;20024;-60
2021/06/16 13:40:00;;;;;;;4.13;3.65;;;;;;;;;;5074817;28;20029;-60
2021/06/16 13:42:25;;;;;;;20.92;4.57;;;;;;;;;;5074866;28;20572;-60
2021/06/16 13:44:52;;;;;;;4.38;3.85;;;;;;;;;;5074656;28;20032;-60
2021/06/16 13:47:18;;;;;;;4.43;4.07;;;;;;;;;;5074723;28;20386;-60
2021/06/16 13:49:44;;;;;;;5.28;4.10;;;;;;;;;;5074657;28;20032;-60
2021/06/16 13:52:09;;;;;;;4.25;3.92;;;;;;;;;;5074416;28;20633;-60
2021/06/16 13:54:35;;;;;;;5.72;3.80;;;;;;;;;;5073455;28;20513;-60
2021/06/16 13:57:00;;;;;;;4.38;3.95;;;;;;;;;;5074562;28;20020;-61
2021/06/16 13:59:25;;;;;;;5.95;3.90;;;;;;;;;;5074467;28;20020;-61
2021/06/16 14:01:51;;;;;;;9.35;4.50;;;;;;;;;;5074335;28;20047;-61
2021/06/16 14:04:16;;;;;;;5.10;4.60;;;;;;;;;;5073035;28;20040;-60
2021/06/16 14:06:42;;;;;;;5.82;3.60;;;;;;;;;;5074431;28;20037;-61
2021/06/16 14:09:13;;;;;;;4.97;4.25;;;;;;;;;;5074309;28;20142;-60
2021/06/16 14:11:39;;;;;;;6.85;4.13;;;;;;;;;;5073726;28;20028;-61
2021/06/16 14:14:06;;;;;;;5.85;4.57;;;;;;;;;;5074477;28;20153;-61
2021/06/16 14:16:31;;;;;;;6.75;4.30;;;;;;;;;;5074109;28;20395;-61
2021/06/16 14:18:56;;;;;;;7.18;4.68;;;;;;;;;;5073999;28;20024;-61
2021/06/16 14:21:22;;;;;;;11.52;5.43;;;;;;;;;;5072573;28;20162;-60
2021/06/16 14:23:47;;;;;;;8.13;3.90;;;;;;;;;;5073875;28;20494;-61
2021/06/16 14:26:13;;;;;;;5.85;4.88;;;;;;;;;;5073825;28;20085;-60
2021/06/16 14:28:38;;;;;;;5.60;4.60;;;;;;;;;;5073885;28;20480;-60
2021/06/16 14:31:04;;;;;;;7.93;4.60;;;;;;;;;;5073707;28;20032;-60
2021/06/16 14:33:29;;;;;;;6.70;4.30;;;;;;;;;;5072660;28;20479;-60
2021/06/16 14:35:55;;;;;;;5.60;4.65;;;;;;;;;;5073719;28;20029;-60
2021/06/16 14:38:20;;;;;;;8.73;4.80;;;;;;;;;;5073779;28;20100;-61
2021/06/16 14:40:48;;;;;;;12.90;5.22;;;;;;;;;;5073777;28;20078;-60
2021/06/16 14:43:13;;;;;;;10.07;4.93;;;;;;;;;;5073722;28;20383;-61